sensor_id;sensor_type;location;lat;lon;timestamp;P1;durP1;ratioP1;P2;durP2;ratioP2
26082;SDS011;13848;49.018;12.078;2023-01-28T00:00:54;9.98;;;4.95;;
26082;SDS011;13848;49.018;12.078;2023-01-28T00:03:20;9.45;;;4.97;;
26082;SDS011;13848;49.018;12.078;2023-01-28T00:05:46;8.90;;;4.55;;
26082;SDS011;13848;49.018;12.078;2023-01-28T00:08:12;7.47;;;4.47;;
26082;SDS011;13848;49.018;12.078;2023-01-28T00:10:39;9.45;;;4.57;;
26082;SDS011;13848;49.018;12.078;2023-01-28T00:13:05;9.70;;;5.28;;
26082;SDS011;13848;49.018;12.078;2023-01-28T00:15:32;9.50;;;5.18;;
26082;SDS011;13848;49.018;12.078;2023-01-28T00:17:58;10.68;;;5.10;;
26082;SDS011;13848;49.018;12.078;2023-01-28T00:20:24;12.63;;;5.38;;
26082;SDS011;13848;49.018;12.078;2023-01-28T00:22:49;9.27;;;5.00;;
26082;SDS011;13848;49.018;12.078;2023-01-28T00:25:15;11.48;;;5.22;;
26082;SDS011;13848;49.018;12.078;2023-01-28T00:27:43;11.57;;;5.78;;
26082;SDS011;13848;49.018;12.078;2023-01-28T00:30:09;11.25;;;5.80;;
26082;SDS011;13848;49.018;12.078;2023-01-28T00:32:36;9.82;;;5.45;;
26082;SDS011;13848;49.018;12.078;2023-01-28T00:35:02;9.82;;;5.55;;
26082;SDS011;13848;49.018;12.078;2023-01-28T00:37:28;9.13;;;5.35;;
26082;SDS011;13848;49.018;12.078;2023-01-28T00:39:54;12.15;;;6.07;;
26082;SDS011;13848;49.018;12.078;2023-01-28T00:42:19;10.88;;;6.20;;
26082;SDS011;13848;49.018;12.078;2023-01-28T00:44:47;10.65;;;6.25;;
26082;SDS011;13848;49.018;12.078;2023-01-28T00:47:13;10.18;;;6.00;;
26082;SDS011;13848;49.018;12.078;2023-01-28T00:49:39;14.27;;;6.43;;
26082;SDS011;13848;49.018;12.078;2023-01-28T00:52:04;12.13;;;6.35;;
26082;SDS011;13848;49.018;12.078;2023-01-28T00:54:30;13.15;;;6.68;;
26082;SDS011;13848;49.018;12.078;2023-01-28T00:56:56;11.18;;;6.32;;
26082;SDS011;13848;49.018;12.078;2023-01-28T00:59:22;12.48;;;6.55;;
26082;SDS011;13848;49.018;12.078;2023-01-28T01:01:49;11.27;;;6.03;;
26082;SDS011;13848;49.018;12.078;2023-01-28T01:04:15;10.90;;;5.50;;
26082;SDS011;13848;49.018;12.078;2023-01-28T01:06:41;9.10;;;5.35;;
26082;SDS011;13848;49.018;12.078;2023-01-28T01:09:09;10.55;;;5.60;;
26082;SDS011;13848;49.018;12.078;2023-01-28T01:11:36;9.77;;;5.53;;
26082;SDS011;13848;49.018;12.078;2023-01-28T01:14:02;10.32;;;5.57;;
26082;SDS011;13848;49.018;12.078;2023-01-28T01:16:29;10.50;;;5.57;;
26082;SDS011;13848;49.018;12.078;2023-01-28T01:18:57;8.23;;;5.07;;
26082;SDS011;13848;49.018;12.078;2023-01-28T01:21:25;10.48;;;5.75;;
26082;SDS011;13848;49.018;12.078;2023-01-28T01:23:52;10.30;;;5.60;;
26082;SDS011;13848;49.018;12.078;2023-01-28T01:26:18;8.95;;;5.30;;
26082;SDS011;13848;49.018;12.078;2023-01-28T01:28:44;11.80;;;5.75;;
26082;SDS011;13848;49.018;12.078;2023-01-28T01:31:11;11.20;;;5.93;;
26082;SDS011;13848;49.018;12.078;2023-01-28T01:33:38;11.70;;;5.85;;
26082;SDS011;13848;49.018;12.078;2023-01-28T01:36:07;11.10;;;6.20;;
26082;SDS011;13848;49.018;12.078;2023-01-28T01:38:33;11.60;;;6.30;;
26082;SDS011;13848;49.018;12.078;2023-01-28T01:40:59;13.40;;;6.68;;
26082;SDS011;13848;49.018;12.078;2023-01-28T01:46:19;10.80;;;6.13;;
26082;SDS011;13848;49.018;12.078;2023-01-28T01:48:51;10.88;;;6.18;;
26082;SDS011;13848;49.018;12.078;2023-01-28T01:51:22;11.93;;;5.93;;
26082;SDS011;13848;49.018;12.078;2023-01-28T01:53:52;11.40;;;6.18;;
26082;SDS011;13848;49.018;12.078;2023-01-28T01:56:21;10.10;;;5.75;;
26082;SDS011;13848;49.018;12.078;2023-01-28T01:58:52;11.73;;;6.43;;
26082;SDS011;13848;49.018;12.078;2023-01-28T02:01:21;14.55;;;6.57;;
26082;SDS011;13848;49.018;12.078;2023-01-28T02:03:52;11.05;;;5.85;;
26082;SDS011;13848;49.018;12.078;2023-01-28T02:06:23;11.60;;;6.18;;
26082;SDS011;13848;49.018;12.078;2023-01-28T02:08:52;12.15;;;6.10;;
26082;SDS011;13848;49.018;12.078;2023-01-28T02:11:19;12.82;;;6.10;;
26082;SDS011;13848;49.018;12.078;2023-01-28T02:13:48;10.07;;;5.63;;
26082;SDS011;13848;49.018;12.078;2023-01-28T02:16:16;11.20;;;5.78;;
26082;SDS011;13848;49.018;12.078;2023-01-28T02:18:43;12.30;;;6.07;;
26082;SDS011;13848;49.018;12.078;2023-01-28T02:21:15;9.68;;;5.35;;
26082;SDS011;13848;49.018;12.078;2023-01-28T02:24:07;10.57;;;5.45;;
26082;SDS011;13848;49.018;12.078;2023-01-28T02:26:55;11.50;;;5.45;;
26082;SDS011;13848;49.018;12.078;2023-01-28T02:29:46;10.65;;;5.30;;
26082;SDS011;13848;49.018;12.078;2023-01-28T02:32:19;9.85;;;5.60;;
26082;SDS011;13848;49.018;12.078;2023-01-28T02:34:50;11.32;;;6.00;;
26082;SDS011;13848;49.018;12.078;2023-01-28T02:37:21;10.93;;;5.72;;
26082;SDS011;13848;49.018;12.078;2023-01-28T02:39:53;9.97;;;5.33;;
26082;SDS011;13848;49.018;12.078;2023-01-28T02:42:24;10.73;;;5.53;;
26082;SDS011;13848;49.018;12.078;2023-01-28T02:44:55;10.88;;;5.57;;
26082;SDS011;13848;49.018;12.078;2023-01-28T02:47:21;11.40;;;6.00;;
26082;SDS011;13848;49.018;12.078;2023-01-28T02:49:47;11.40;;;5.93;;
26082;SDS011;13848;49.018;12.078;2023-01-28T02:52:30;11.15;;;5.95;;
26082;SDS011;13848;49.018;12.078;2023-01-28T02:55:05;9.52;;;5.70;;
26082;SDS011;13848;49.018;12.078;2023-01-28T02:57:38;10.38;;;5.85;;
26082;SDS011;13848;49.018;12.078;2023-01-28T03:00:12;15.63;;;7.03;;
26082;SDS011;13848;49.018;12.078;2023-01-28T03:02:43;12.77;;;6.85;;
26082;SDS011;13848;49.018;12.078;2023-01-28T03:05:16;12.63;;;6.93;;
26082;SDS011;13848;49.018;12.078;2023-01-28T03:07:47;13.93;;;6.82;;
26082;SDS011;13848;49.018;12.078;2023-01-28T03:10:15;10.88;;;6.20;;
26082;SDS011;13848;49.018;12.078;2023-01-28T03:12:45;9.80;;;5.75;;
26082;SDS011;13848;49.018;12.078;2023-01-28T03:15:18;12.38;;;6.55;;
26082;SDS011;13848;49.018;12.078;2023-01-28T03:17:46;12.43;;;6.22;;
26082;SDS011;13848;49.018;12.078;2023-01-28T03:20:14;13.88;;;6.85;;
26082;SDS011;13848;49.018;12.078;2023-01-28T03:22:40;14.07;;;7.18;;
26082;SDS011;13848;49.018;12.078;2023-01-28T03:25:10;11.90;;;6.25;;
26082;SDS011;13848;49.018;12.078;2023-01-28T03:27:41;12.60;;;7.25;;
26082;SDS011;13848;49.018;12.078;2023-01-28T03:30:16;12.77;;;6.82;;
26082;SDS011;13848;49.018;12.078;2023-01-28T03:32:47;13.40;;;7.32;;
26082;SDS011;13848;49.018;12.078;2023-01-28T03:35:15;15.90;;;7.60;;
26082;SDS011;13848;49.018;12.078;2023-01-28T03:37:44;13.38;;;7.20;;
26082;SDS011;13848;49.018;12.078;2023-01-28T03:40:11;14.25;;;7.57;;
26082;SDS011;13848;49.018;12.078;2023-01-28T03:42:37;12.93;;;7.45;;
26082;SDS011;13848;49.018;12.078;2023-01-28T03:45:03;13.85;;;7.80;;
26082;SDS011;13848;49.018;12.078;2023-01-28T03:47:31;15.18;;;8.15;;
26082;SDS011;13848;49.018;12.078;2023-01-28T03:49:58;13.65;;;7.18;;
26082;SDS011;13848;49.018;12.078;2023-01-28T03:52:25;16.35;;;7.38;;
26082;SDS011;13848;49.018;12.078;2023-01-28T03:54:53;15.20;;;7.47;;
26082;SDS011;13848;49.018;12.078;2023-01-28T03:57:19;12.57;;;6.88;;
26082;SDS011;13848;49.018;12.078;2023-01-28T03:59:53;15.70;;;7.40;;
26082;SDS011;13848;49.018;12.078;2023-01-28T04:02:49;14.67;;;7.33;;
26082;SDS011;13848;49.018;12.078;2023-01-28T04:05:21;14.02;;;6.95;;
26082;SDS011;13848;49.018;12.078;2023-01-28T04:07:55;14.77;;;7.18;;
26082;SDS011;13848;49.018;12.078;2023-01-28T04:10:23;14.77;;;7.28;;
26082;SDS011;13848;49.018;12.078;2023-01-28T04:12:53;14.52;;;7.30;;
26082;SDS011;13848;49.018;12.078;2023-01-28T04:15:19;13.10;;;6.85;;
26082;SDS011;13848;49.018;12.078;2023-01-28T04:17:50;14.80;;;7.10;;
26082;SDS011;13848;49.018;12.078;2023-01-28T04:20:17;14.35;;;7.05;;
26082;SDS011;13848;49.018;12.078;2023-01-28T04:22:45;13.70;;;7.00;;
26082;SDS011;13848;49.018;12.078;2023-01-28T04:25:14;14.50;;;7.43;;
26082;SDS011;13848;49.018;12.078;2023-01-28T04:27:43;15.60;;;8.10;;
26082;SDS011;13848;49.018;12.078;2023-01-28T04:30:10;14.00;;;7.32;;
26082;SDS011;13848;49.018;12.078;2023-01-28T04:32:39;14.88;;;7.28;;
26082;SDS011;13848;49.018;12.078;2023-01-28T04:35:07;13.73;;;7.38;;
26082;SDS011;13848;49.018;12.078;2023-01-28T04:37:34;14.55;;;7.38;;
26082;SDS011;13848;49.018;12.078;2023-01-28T04:40:04;13.65;;;8.30;;
26082;SDS011;13848;49.018;12.078;2023-01-28T04:42:31;17.55;;;8.18;;
26082;SDS011;13848;49.018;12.078;2023-01-28T04:45:03;18.15;;;7.95;;
26082;SDS011;13848;49.018;12.078;2023-01-28T04:47:30;15.45;;;8.00;;
26082;SDS011;13848;49.018;12.078;2023-01-28T04:49:57;17.08;;;7.65;;
26082;SDS011;13848;49.018;12.078;2023-01-28T04:52:25;14.68;;;7.40;;
26082;SDS011;13848;49.018;12.078;2023-01-28T04:54:51;14.88;;;8.13;;
26082;SDS011;13848;49.018;12.078;2023-01-28T04:57:18;15.63;;;7.75;;
26082;SDS011;13848;49.018;12.078;2023-01-28T04:59:46;16.08;;;8.40;;
26082;SDS011;13848;49.018;12.078;2023-01-28T05:02:12;13.77;;;7.43;;
26082;SDS011;13848;49.018;12.078;2023-01-28T05:04:39;16.45;;;7.80;;
26082;SDS011;13848;49.018;12.078;2023-01-28T05:07:08;16.88;;;7.07;;
26082;SDS011;13848;49.018;12.078;2023-01-28T05:09:36;14.30;;;7.85;;
26082;SDS011;13848;49.018;12.078;2023-01-28T05:12:05;16.80;;;7.75;;
26082;SDS011;13848;49.018;12.078;2023-01-28T05:14:34;14.60;;;7.93;;
26082;SDS011;13848;49.018;12.078;2023-01-28T05:17:00;16.38;;;7.97;;
26082;SDS011;13848;49.018;12.078;2023-01-28T05:19:27;17.42;;;8.07;;
26082;SDS011;13848;49.018;12.078;2023-01-28T05:21:56;13.13;;;7.70;;
26082;SDS011;13848;49.018;12.078;2023-01-28T05:24:22;16.17;;;7.68;;
26082;SDS011;13848;49.018;12.078;2023-01-28T05:26:56;15.35;;;7.88;;
26082;SDS011;13848;49.018;12.078;2023-01-28T05:29:26;15.75;;;7.95;;
26082;SDS011;13848;49.018;12.078;2023-01-28T05:31:53;15.90;;;7.70;;
26082;SDS011;13848;49.018;12.078;2023-01-28T05:34:28;15.45;;;8.15;;
26082;SDS011;13848;49.018;12.078;2023-01-28T05:36:57;18.20;;;7.68;;
26082;SDS011;13848;49.018;12.078;2023-01-28T05:39:24;14.20;;;7.32;;
26082;SDS011;13848;49.018;12.078;2023-01-28T05:41:50;16.50;;;8.07;;
26082;SDS011;13848;49.018;12.078;2023-01-28T05:44:18;17.17;;;8.27;;
26082;SDS011;13848;49.018;12.078;2023-01-28T05:46:45;19.80;;;8.07;;
26082;SDS011;13848;49.018;12.078;2023-01-28T05:49:11;15.32;;;8.23;;
26082;SDS011;13848;49.018;12.078;2023-01-28T05:51:41;13.07;;;7.63;;
26082;SDS011;13848;49.018;12.078;2023-01-28T05:54:08;16.35;;;8.10;;
26082;SDS011;13848;49.018;12.078;2023-01-28T05:56:39;14.70;;;7.63;;
26082;SDS011;13848;49.018;12.078;2023-01-28T05:59:09;13.02;;;7.13;;
26082;SDS011;13848;49.018;12.078;2023-01-28T06:01:36;14.57;;;7.65;;
26082;SDS011;13848;49.018;12.078;2023-01-28T06:04:05;12.35;;;7.10;;
26082;SDS011;13848;49.018;12.078;2023-01-28T06:06:33;16.52;;;8.20;;
26082;SDS011;13848;49.018;12.078;2023-01-28T06:09:05;14.07;;;7.53;;
26082;SDS011;13848;49.018;12.078;2023-01-28T06:11:31;15.82;;;7.38;;
26082;SDS011;13848;49.018;12.078;2023-01-28T06:13:57;13.98;;;7.22;;
26082;SDS011;13848;49.018;12.078;2023-01-28T06:16:25;13.02;;;7.30;;
26082;SDS011;13848;49.018;12.078;2023-01-28T06:18:51;13.60;;;7.35;;
26082;SDS011;13848;49.018;12.078;2023-01-28T06:21:21;13.05;;;7.32;;
26082;SDS011;13848;49.018;12.078;2023-01-28T06:23:50;15.02;;;7.35;;
26082;SDS011;13848;49.018;12.078;2023-01-28T06:26:16;14.30;;;8.07;;
26082;SDS011;13848;49.018;12.078;2023-01-28T06:28:43;16.00;;;8.13;;
26082;SDS011;13848;49.018;12.078;2023-01-28T06:31:11;13.18;;;7.53;;
26082;SDS011;13848;49.018;12.078;2023-01-28T06:33:42;15.60;;;7.90;;
26082;SDS011;13848;49.018;12.078;2023-01-28T06:36:11;13.18;;;7.30;;
26082;SDS011;13848;49.018;12.078;2023-01-28T06:38:42;15.07;;;7.32;;
26082;SDS011;13848;49.018;12.078;2023-01-28T06:41:12;16.65;;;7.45;;
26082;SDS011;13848;49.018;12.078;2023-01-28T06:43:38;14.80;;;7.15;;
26082;SDS011;13848;49.018;12.078;2023-01-28T06:46:05;14.88;;;7.72;;
26082;SDS011;13848;49.018;12.078;2023-01-28T06:48:31;14.57;;;7.93;;
26082;SDS011;13848;49.018;12.078;2023-01-28T06:50:59;14.30;;;7.05;;
26082;SDS011;13848;49.018;12.078;2023-01-28T06:53:25;14.23;;;7.07;;
26082;SDS011;13848;49.018;12.078;2023-01-28T06:55:52;14.32;;;7.40;;
26082;SDS011;13848;49.018;12.078;2023-01-28T06:58:24;16.05;;;7.50;;
26082;SDS011;13848;49.018;12.078;2023-01-28T07:00:51;14.07;;;6.88;;
26082;SDS011;13848;49.018;12.078;2023-01-28T07:03:18;15.65;;;7.68;;
26082;SDS011;13848;49.018;12.078;2023-01-28T07:05:44;14.82;;;7.60;;
26082;SDS011;13848;49.018;12.078;2023-01-28T07:08:12;13.75;;;7.28;;
26082;SDS011;13848;49.018;12.078;2023-01-28T07:10:38;14.18;;;6.88;;
26082;SDS011;13848;49.018;12.078;2023-01-28T07:13:05;15.05;;;7.30;;
26082;SDS011;13848;49.018;12.078;2023-01-28T07:15:37;12.50;;;6.97;;
26082;SDS011;13848;49.018;12.078;2023-01-28T07:18:06;13.73;;;7.13;;
26082;SDS011;13848;49.018;12.078;2023-01-28T07:20:32;14.52;;;7.78;;
26082;SDS011;13848;49.018;12.078;2023-01-28T07:22:59;12.07;;;7.32;;
26082;SDS011;13848;49.018;12.078;2023-01-28T07:25:27;14.48;;;7.00;;
26082;SDS011;13848;49.018;12.078;2023-01-28T07:27:56;17.30;;;7.75;;
26082;SDS011;13848;49.018;12.078;2023-01-28T07:30:25;15.05;;;7.38;;
26082;SDS011;13848;49.018;12.078;2023-01-28T07:32:52;16.23;;;7.72;;
26082;SDS011;13848;49.018;12.078;2023-01-28T07:35:22;14.82;;;7.47;;
26082;SDS011;13848;49.018;12.078;2023-01-28T07:37:52;14.85;;;6.90;;
26082;SDS011;13848;49.018;12.078;2023-01-28T07:40:19;11.40;;;6.38;;
26082;SDS011;13848;49.018;12.078;2023-01-28T07:42:48;15.80;;;7.75;;
26082;SDS011;13848;49.018;12.078;2023-01-28T07:45:15;15.85;;;7.63;;
26082;SDS011;13848;49.018;12.078;2023-01-28T07:47:51;13.32;;;7.63;;
26082;SDS011;13848;49.018;12.078;2023-01-28T07:50:18;12.48;;;7.28;;
26082;SDS011;13848;49.018;12.078;2023-01-28T07:52:47;16.52;;;8.02;;
26082;SDS011;13848;49.018;12.078;2023-01-28T07:55:15;14.25;;;7.45;;
26082;SDS011;13848;49.018;12.078;2023-01-28T07:57:50;13.50;;;7.32;;
26082;SDS011;13848;49.018;12.078;2023-01-28T08:00:18;14.30;;;7.50;;
26082;SDS011;13848;49.018;12.078;2023-01-28T08:02:48;17.88;;;7.82;;
26082;SDS011;13848;49.018;12.078;2023-01-28T08:05:15;14.13;;;7.55;;
26082;SDS011;13848;49.018;12.078;2023-01-28T08:07:46;15.23;;;8.18;;
26082;SDS011;13848;49.018;12.078;2023-01-28T08:10:16;19.23;;;7.72;;
26082;SDS011;13848;49.018;12.078;2023-01-28T08:12:55;14.60;;;7.53;;
26082;SDS011;13848;49.018;12.078;2023-01-28T08:15:23;16.58;;;7.78;;
26082;SDS011;13848;49.018;12.078;2023-01-28T08:17:54;16.20;;;7.90;;
26082;SDS011;13848;49.018;12.078;2023-01-28T08:20:25;13.73;;;7.55;;
26082;SDS011;13848;49.018;12.078;2023-01-28T08:23:03;14.65;;;7.90;;
26082;SDS011;13848;49.018;12.078;2023-01-28T08:25:36;16.02;;;7.45;;
26082;SDS011;13848;49.018;12.078;2023-01-28T08:28:04;14.82;;;7.50;;
26082;SDS011;13848;49.018;12.078;2023-01-28T08:30:31;17.60;;;8.13;;
26082;SDS011;13848;49.018;12.078;2023-01-28T08:32:58;13.90;;;7.68;;
26082;SDS011;13848;49.018;12.078;2023-01-28T08:35:33;15.48;;;8.18;;
26082;SDS011;13848;49.018;12.078;2023-01-28T08:38:00;17.33;;;7.68;;
26082;SDS011;13848;49.018;12.078;2023-01-28T08:40:32;15.75;;;8.75;;
26082;SDS011;13848;49.018;12.078;2023-01-28T08:43:01;15.45;;;7.35;;
26082;SDS011;13848;49.018;12.078;2023-01-28T08:45:29;15.85;;;7.78;;
26082;SDS011;13848;49.018;12.078;2023-01-28T08:47:56;15.10;;;7.90;;
26082;SDS011;13848;49.018;12.078;2023-01-28T08:50:25;15.60;;;7.85;;
26082;SDS011;13848;49.018;12.078;2023-01-28T08:52:56;16.05;;;7.80;;
26082;SDS011;13848;49.018;12.078;2023-01-28T08:55:26;18.30;;;9.35;;
26082;SDS011;13848;49.018;12.078;2023-01-28T08:57:53;16.25;;;8.55;;
26082;SDS011;13848;49.018;12.078;2023-01-28T09:00:20;16.35;;;9.27;;
26082;SDS011;13848;49.018;12.078;2023-01-28T09:02:50;15.77;;;8.35;;
26082;SDS011;13848;49.018;12.078;2023-01-28T09:05:17;17.38;;;8.23;;
26082;SDS011;13848;49.018;12.078;2023-01-28T09:07:44;19.08;;;8.93;;
26082;SDS011;13848;49.018;12.078;2023-01-28T09:10:11;19.70;;;8.73;;
26082;SDS011;13848;49.018;12.078;2023-01-28T09:12:38;19.50;;;9.63;;
26082;SDS011;13848;49.018;12.078;2023-01-28T09:15:07;20.38;;;9.75;;
26082;SDS011;13848;49.018;12.078;2023-01-28T09:17:37;20.88;;;8.65;;
26082;SDS011;13848;49.018;12.078;2023-01-28T09:20:06;20.35;;;8.98;;
26082;SDS011;13848;49.018;12.078;2023-01-28T09:22:36;19.02;;;9.38;;
26082;SDS011;13848;49.018;12.078;2023-01-28T09:25:10;20.92;;;9.05;;
26082;SDS011;13848;49.018;12.078;2023-01-28T09:27:48;17.15;;;9.45;;
26082;SDS011;13848;49.018;12.078;2023-01-28T09:30:18;21.05;;;9.80;;
26082;SDS011;13848;49.018;12.078;2023-01-28T09:32:44;19.58;;;9.43;;
26082;SDS011;13848;49.018;12.078;2023-01-28T09:35:19;19.35;;;8.88;;
26082;SDS011;13848;49.018;12.078;2023-01-28T09:37:46;17.20;;;8.52;;
26082;SDS011;13848;49.018;12.078;2023-01-28T09:40:16;20.45;;;8.52;;
26082;SDS011;13848;49.018;12.078;2023-01-28T09:42:49;17.35;;;8.98;;
26082;SDS011;13848;49.018;12.078;2023-01-28T09:45:28;17.53;;;9.27;;
26082;SDS011;13848;49.018;12.078;2023-01-28T09:48:03;17.80;;;8.90;;
26082;SDS011;13848;49.018;12.078;2023-01-28T09:50:35;18.23;;;8.77;;
26082;SDS011;13848;49.018;12.078;2023-01-28T09:53:04;19.60;;;9.43;;
26082;SDS011;13848;49.018;12.078;2023-01-28T09:55:42;20.40;;;9.95;;
26082;SDS011;13848;49.018;12.078;2023-01-28T09:58:16;18.02;;;9.23;;
26082;SDS011;13848;49.018;12.078;2023-01-28T10:00:52;20.13;;;9.00;;
26082;SDS011;13848;49.018;12.078;2023-01-28T10:03:45;18.33;;;9.15;;
26082;SDS011;13848;49.018;12.078;2023-01-28T10:06:33;20.50;;;9.40;;
26082;SDS011;13848;49.018;12.078;2023-01-28T10:09:13;19.45;;;9.23;;
26082;SDS011;13848;49.018;12.078;2023-01-28T10:12:00;16.25;;;9.13;;
26082;SDS011;13848;49.018;12.078;2023-01-28T10:14:43;19.92;;;9.52;;
26082;SDS011;13848;49.018;12.078;2023-01-28T10:17:25;18.88;;;9.23;;
26082;SDS011;13848;49.018;12.078;2023-01-28T10:20:17;17.25;;;8.60;;
26082;SDS011;13848;49.018;12.078;2023-01-28T10:22:48;18.65;;;9.15;;
26082;SDS011;13848;49.018;12.078;2023-01-28T10:25:25;20.25;;;8.88;;
26082;SDS011;13848;49.018;12.078;2023-01-28T10:27:54;20.95;;;9.30;;
26082;SDS011;13848;49.018;12.078;2023-01-28T10:30:23;18.83;;;9.13;;
26082;SDS011;13848;49.018;12.078;2023-01-28T10:32:51;18.70;;;9.93;;
26082;SDS011;13848;49.018;12.078;2023-01-28T10:35:26;19.25;;;9.52;;
26082;SDS011;13848;49.018;12.078;2023-01-28T10:37:56;16.38;;;9.25;;
26082;SDS011;13848;49.018;12.078;2023-01-28T10:40:29;23.00;;;9.88;;
26082;SDS011;13848;49.018;12.078;2023-01-28T10:42:55;18.75;;;9.63;;
26082;SDS011;13848;49.018;12.078;2023-01-28T10:45:22;18.50;;;9.88;;
26082;SDS011;13848;49.018;12.078;2023-01-28T10:50:28;21.15;;;9.60;;
26082;SDS011;13848;49.018;12.078;2023-01-28T10:52:58;19.10;;;9.65;;
26082;SDS011;13848;49.018;12.078;2023-01-28T10:55:26;20.77;;;9.73;;
26082;SDS011;13848;49.018;12.078;2023-01-28T10:57:54;18.83;;;9.50;;
26082;SDS011;13848;49.018;12.078;2023-01-28T11:00:22;20.17;;;9.95;;
26082;SDS011;13848;49.018;12.078;2023-01-28T11:02:51;19.38;;;10.13;;
26082;SDS011;13848;49.018;12.078;2023-01-28T11:05:19;22.08;;;9.38;;
26082;SDS011;13848;49.018;12.078;2023-01-28T11:07:47;18.90;;;9.45;;
26082;SDS011;13848;49.018;12.078;2023-01-28T11:10:28;24.80;;;10.48;;
26082;SDS011;13848;49.018;12.078;2023-01-28T11:12:56;20.95;;;10.23;;
26082;SDS011;13848;49.018;12.078;2023-01-28T11:15:23;22.10;;;10.55;;
26082;SDS011;13848;49.018;12.078;2023-01-28T11:17:50;19.13;;;9.77;;
26082;SDS011;13848;49.018;12.078;2023-01-28T11:20:21;22.75;;;10.13;;
26082;SDS011;13848;49.018;12.078;2023-01-28T11:22:50;20.02;;;10.80;;
26082;SDS011;13848;49.018;12.078;2023-01-28T11:25:17;19.23;;;9.63;;
26082;SDS011;13848;49.018;12.078;2023-01-28T11:27:50;19.42;;;9.90;;
26082;SDS011;13848;49.018;12.078;2023-01-28T11:30:20;20.77;;;10.18;;
26082;SDS011;13848;49.018;12.078;2023-01-28T11:32:53;20.02;;;10.07;;
26082;SDS011;13848;49.018;12.078;2023-01-28T11:35:23;19.25;;;10.85;;
26082;SDS011;13848;49.018;12.078;2023-01-28T11:37:50;18.98;;;10.32;;
26082;SDS011;13848;49.018;12.078;2023-01-28T11:40:17;17.65;;;9.52;;
26082;SDS011;13848;49.018;12.078;2023-01-28T11:42:44;21.42;;;10.20;;
26082;SDS011;13848;49.018;12.078;2023-01-28T11:45:13;19.48;;;9.73;;
26082;SDS011;13848;49.018;12.078;2023-01-28T11:47:43;22.65;;;10.23;;
26082;SDS011;13848;49.018;12.078;2023-01-28T11:50:23;19.90;;;9.82;;
26082;SDS011;13848;49.018;12.078;2023-01-28T11:52:59;20.08;;;9.82;;
26082;SDS011;13848;49.018;12.078;2023-01-28T11:55:44;20.73;;;9.63;;
26082;SDS011;13848;49.018;12.078;2023-01-28T11:58:21;21.10;;;9.52;;
26082;SDS011;13848;49.018;12.078;2023-01-28T12:00:54;18.40;;;9.18;;
26082;SDS011;13848;49.018;12.078;2023-01-28T12:03:41;19.77;;;9.43;;
26082;SDS011;13848;49.018;12.078;2023-01-28T12:06:27;16.23;;;8.95;;
26082;SDS011;13848;49.018;12.078;2023-01-28T12:09:06;17.58;;;8.85;;
26082;SDS011;13848;49.018;12.078;2023-01-28T12:11:45;22.20;;;9.43;;
26082;SDS011;13848;49.018;12.078;2023-01-28T12:14:24;17.17;;;9.20;;
26082;SDS011;13848;49.018;12.078;2023-01-28T12:19:36;18.25;;;9.32;;
26082;SDS011;13848;49.018;12.078;2023-01-28T12:22:28;16.98;;;8.40;;
26082;SDS011;13848;49.018;12.078;2023-01-28T12:25:12;19.02;;;9.10;;
26082;SDS011;13848;49.018;12.078;2023-01-28T12:27:47;18.52;;;8.40;;
26082;SDS011;13848;49.018;12.078;2023-01-28T12:30:24;18.98;;;8.75;;
26082;SDS011;13848;49.018;12.078;2023-01-28T12:33:04;18.65;;;9.10;;
26082;SDS011;13848;49.018;12.078;2023-01-28T12:35:50;14.90;;;8.20;;
26082;SDS011;13848;49.018;12.078;2023-01-28T12:38:26;18.65;;;7.75;;
26082;SDS011;13848;49.018;12.078;2023-01-28T12:41:04;15.93;;;8.20;;
26082;SDS011;13848;49.018;12.078;2023-01-28T12:43:40;17.80;;;8.73;;
26082;SDS011;13848;49.018;12.078;2023-01-28T12:46:11;14.50;;;7.55;;
26082;SDS011;13848;49.018;12.078;2023-01-28T12:48:50;16.85;;;8.07;;
26082;SDS011;13848;49.018;12.078;2023-01-28T12:51:20;14.82;;;7.85;;
26082;SDS011;13848;49.018;12.078;2023-01-28T12:53:52;16.08;;;7.82;;
26082;SDS011;13848;49.018;12.078;2023-01-28T12:56:22;22.35;;;11.25;;
26082;SDS011;13848;49.018;12.078;2023-01-28T12:58:53;16.20;;;8.83;;
26082;SDS011;13848;49.018;12.078;2023-01-28T13:01:24;13.52;;;7.28;;
26082;SDS011;13848;49.018;12.078;2023-01-28T13:03:56;18.67;;;8.00;;
26082;SDS011;13848;49.018;12.078;2023-01-28T13:06:29;14.88;;;7.35;;
26082;SDS011;13848;49.018;12.078;2023-01-28T13:08:59;16.75;;;7.45;;
26082;SDS011;13848;49.018;12.078;2023-01-28T13:11:31;15.93;;;8.35;;
26082;SDS011;13848;49.018;12.078;2023-01-28T13:13:59;17.77;;;8.30;;
26082;SDS011;13848;49.018;12.078;2023-01-28T13:16:26;15.63;;;7.97;;
26082;SDS011;13848;49.018;12.078;2023-01-28T13:18:52;15.35;;;7.72;;
26082;SDS011;13848;49.018;12.078;2023-01-28T13:21:31;15.25;;;7.13;;
26082;SDS011;13848;49.018;12.078;2023-01-28T13:24:03;12.68;;;7.15;;
26082;SDS011;13848;49.018;12.078;2023-01-28T13:26:45;13.57;;;7.10;;
26082;SDS011;13848;49.018;12.078;2023-01-28T13:29:17;15.35;;;7.18;;
26082;SDS011;13848;49.018;12.078;2023-01-28T13:31:45;14.52;;;6.90;;
26082;SDS011;13848;49.018;12.078;2023-01-28T13:34:30;12.25;;;6.57;;
26082;SDS011;13848;49.018;12.078;2023-01-28T13:37:00;11.75;;;5.95;;
26082;SDS011;13848;49.018;12.078;2023-01-28T13:39:28;11.63;;;6.10;;
26082;SDS011;13848;49.018;12.078;2023-01-28T13:42:07;9.27;;;5.78;;
26082;SDS011;13848;49.018;12.078;2023-01-28T13:44:35;13.65;;;5.90;;
26082;SDS011;13848;49.018;12.078;2023-01-28T13:47:11;13.07;;;6.38;;
26082;SDS011;13848;49.018;12.078;2023-01-28T13:49:40;12.00;;;6.13;;
26082;SDS011;13848;49.018;12.078;2023-01-28T13:52:13;12.00;;;6.82;;
26082;SDS011;13848;49.018;12.078;2023-01-28T13:54:43;9.30;;;5.22;;
26082;SDS011;13848;49.018;12.078;2023-01-28T13:57:23;9.07;;;5.15;;
26082;SDS011;13848;49.018;12.078;2023-01-28T14:00:14;15.60;;;4.45;;
26082;SDS011;13848;49.018;12.078;2023-01-28T14:02:52;9.32;;;5.03;;
26082;SDS011;13848;49.018;12.078;2023-01-28T14:05:44;7.97;;;4.53;;
26082;SDS011;13848;49.018;12.078;2023-01-28T14:11:43;8.68;;;5.03;;
26082;SDS011;13848;49.018;12.078;2023-01-28T14:14:49;8.45;;;4.72;;
26082;SDS011;13848;49.018;12.078;2023-01-28T14:17:31;9.68;;;5.43;;
26082;SDS011;13848;49.018;12.078;2023-01-28T14:20:06;20.38;;;9.60;;
26082;SDS011;13848;49.018;12.078;2023-01-28T14:22:41;11.73;;;5.18;;
26082;SDS011;13848;49.018;12.078;2023-01-28T14:25:13;8.88;;;5.00;;
26082;SDS011;13848;49.018;12.078;2023-01-28T14:27:43;9.15;;;4.93;;
26082;SDS011;13848;49.018;12.078;2023-01-28T14:30:15;8.65;;;4.60;;
26082;SDS011;13848;49.018;12.078;2023-01-28T14:32:46;8.65;;;5.00;;
26082;SDS011;13848;49.018;12.078;2023-01-28T14:35:15;7.50;;;5.07;;
26082;SDS011;13848;49.018;12.078;2023-01-28T14:37:48;9.60;;;5.45;;
26082;SDS011;13848;49.018;12.078;2023-01-28T14:40:17;8.95;;;5.03;;
26082;SDS011;13848;49.018;12.078;2023-01-28T14:42:45;7.07;;;4.65;;
26082;SDS011;13848;49.018;12.078;2023-01-28T14:45:18;7.03;;;4.38;;
26082;SDS011;13848;49.018;12.078;2023-01-28T14:47:58;9.45;;;4.88;;
26082;SDS011;13848;49.018;12.078;2023-01-28T14:50:41;11.50;;;6.15;;
26082;SDS011;13848;49.018;12.078;2023-01-28T14:53:49;10.23;;;4.65;;
26082;SDS011;13848;49.018;12.078;2023-01-28T14:56:29;10.35;;;5.65;;